createdAt,value
2023-03-29T00:01:36.705Z,101275.19
2023-03-29T00:04:06.604Z,101269.97
2023-03-29T00:06:34.117Z,101299.31
2023-03-29T00:09:05.731Z,101266.53
2023-03-29T00:11:32.957Z,101294.03
2023-03-29T00:14:00.663Z,101268.25
2023-03-29T00:16:27.390Z,101263.91
2023-03-29T00:18:53.993Z,101284.56
2023-03-29T00:21:20.832Z,101265.63
2023-03-29T00:23:47.460Z,101238.88
2023-03-29T00:26:14.189Z,101275.97
2023-03-29T00:28:40.956Z,101269.00
2023-03-29T00:31:17.310Z,101293.97
2023-03-29T00:33:44.356Z,101243.06
2023-03-29T00:36:18.692Z,101235.25
2023-03-29T00:38:45.598Z,101256.81
2023-03-29T00:41:15.323Z,101265.38
2023-03-29T00:43:57.376Z,101248.09
2023-03-29T00:46:26.204Z,101305.06
2023-03-29T00:48:57.133Z,101262.78
2023-03-29T00:51:28.030Z,101292.94
2023-03-29T00:53:59.684Z,101289.47
2023-03-29T00:56:35.331Z,101242.81
2023-03-29T00:59:19.763Z,101283.31
2023-03-29T01:02:00.125Z,101284.25
2023-03-29T01:04:47.696Z,101289.44
2023-03-29T01:07:21.466Z,101252.38
2023-03-29T01:09:54.266Z,101291.16
2023-03-29T01:12:26.952Z,101289.41
2023-03-29T01:14:58.849Z,101247.13
2023-03-29T01:17:25.945Z,101247.06
2023-03-29T01:19:59.017Z,101233.22
2023-03-29T01:22:42.656Z,101235.75
2023-03-29T01:25:21.336Z,101252.06
2023-03-29T01:27:54.203Z,101221.06
2023-03-29T01:30:29.020Z,101187.44
2023-03-29T01:33:23.974Z,101217.50
2023-03-29T01:35:58.025Z,101233.81
2023-03-29T01:38:31.231Z,101189.84
2023-03-29T01:40:58.284Z,101201.06
2023-03-29T01:43:31.477Z,101182.91
2023-03-29T01:46:29.528Z,101232.03
2023-03-29T01:49:17.560Z,101122.56
2023-03-29T01:51:53.347Z,101234.66
2023-03-29T01:54:24.651Z,101230.31
2023-03-29T01:56:57.382Z,101201.06
2023-03-29T01:59:29.268Z,101215.66
2023-03-29T02:02:00.758Z,101214.00
2023-03-29T02:04:34.277Z,101231.97
2023-03-29T02:07:09.055Z,101179.41
2023-03-29T02:09:38.391Z,101194.97
2023-03-29T02:12:09.024Z,101198.34
2023-03-29T02:14:35.960Z,101184.53
2023-03-29T02:17:23.465Z,101214.66
2023-03-29T02:20:22.486Z,101228.41
2023-03-29T02:23:02.347Z,101238.84
2023-03-29T02:25:29.643Z,101197.34
2023-03-29T02:27:57.028Z,101182.63
2023-03-29T02:30:27.222Z,101181.75
2023-03-29T02:33:11.009Z,101205.75
2023-03-29T02:36:17.767Z,101193.75
2023-03-29T02:38:44.955Z,101206.72
2023-03-29T02:41:12.279Z,101190.28
2023-03-29T02:43:41.121Z,101192.78
2023-03-29T02:46:08.120Z,101176.41
2023-03-29T02:48:37.685Z,101184.16
2023-03-29T02:51:13.277Z,101160.00
2023-03-29T02:53:44.098Z,101178.91
2023-03-29T02:56:11.130Z,101159.97
2023-03-29T02:58:38.735Z,101156.47
2023-03-29T03:01:09.757Z,101194.34
2023-03-29T03:03:36.671Z,101170.25
2023-03-29T03:06:03.768Z,101159.91
2023-03-29T03:08:30.382Z,101192.63
2023-03-29T03:10:57.378Z,101146.16
2023-03-29T03:13:24.051Z,101107.41
2023-03-29T03:15:50.686Z,101167.53
2023-03-29T03:18:17.713Z,101152.91
2023-03-29T03:20:46.641Z,101152.81
2023-03-29T03:23:13.360Z,101156.19
2023-03-29T03:25:40.021Z,101092.44
2023-03-29T03:28:07.041Z,101131.19
2023-03-29T03:30:34.814Z,101123.34
2023-03-29T03:33:01.611Z,101143.25
2023-03-29T03:35:28.590Z,101111.31
2023-03-29T03:37:55.428Z,101096.72
2023-03-29T03:40:22.186Z,101150.91
2023-03-29T03:42:48.794Z,101127.66
2023-03-29T03:45:15.809Z,101123.41
2023-03-29T03:47:42.443Z,101127.84
2023-03-29T03:50:09.404Z,101168.38
2023-03-29T03:52:36.405Z,101162.31
2023-03-29T03:55:03.234Z,101145.13
2023-03-29T03:57:29.938Z,101171.88
2023-03-29T03:59:56.714Z,101128.75
2023-03-29T04:02:23.484Z,101132.22
2023-03-29T04:04:50.189Z,101128.75
2023-03-29T04:07:18.019Z,101115.81
2023-03-29T04:09:45.262Z,101138.19
2023-03-29T04:12:12.169Z,101146.72
2023-03-29T04:14:38.817Z,101108.88
2023-03-29T04:17:05.761Z,101102.84
2023-03-29T04:19:32.520Z,101133.88
2023-03-29T04:21:59.070Z,101095.19
2023-03-29T04:24:25.656Z,101080.47
2023-03-29T04:26:52.344Z,101123.41
2023-03-29T04:29:18.982Z,101127.78
2023-03-29T04:31:45.674Z,101113.25
2023-03-29T04:34:12.260Z,101076.91
2023-03-29T04:36:40.856Z,101106.22
2023-03-29T04:39:08.230Z,101106.16
2023-03-29T04:41:35.262Z,101074.28
2023-03-29T04:44:02.698Z,101122.47
2023-03-29T04:46:30.313Z,101113.94
2023-03-29T04:48:57.453Z,101118.25
2023-03-29T04:51:24.465Z,101113.09
2023-03-29T04:53:51.504Z,101107.88
2023-03-29T04:56:18.021Z,101083.84
2023-03-29T04:58:44.717Z,101103.56
2023-03-29T05:01:11.765Z,101107.81
2023-03-29T05:03:38.632Z,101094.06
2023-03-29T05:06:07.405Z,101119.84
2023-03-29T05:08:38.579Z,101101.84
2023-03-29T05:11:15.476Z,101078.63
2023-03-29T05:13:42.787Z,101046.69
2023-03-29T05:16:11.338Z,101081.94
2023-03-29T05:18:38.795Z,101069.75
2023-03-29T05:21:06.471Z,101031.91
2023-03-29T05:23:34.407Z,101041.34
2023-03-29T05:26:01.289Z,101092.19
2023-03-29T05:28:27.806Z,101068.22
2023-03-29T05:31:04.540Z,101139.69
2023-03-29T05:34:44.417Z,101135.28
2023-03-29T05:37:14.532Z,101108.56
2023-03-29T05:39:43.467Z,101074.94
2023-03-29T05:42:12.473Z,101128.44
2023-03-29T05:44:44.880Z,101136.13
2023-03-29T05:47:37.885Z,101030.22
2023-03-29T05:50:05.855Z,101095.56
2023-03-29T05:52:43.890Z,101029.22
2023-03-29T05:55:13.352Z,101110.94
2023-03-29T05:57:42.444Z,101057.56
2023-03-29T06:00:34.527Z,101048.91
2023-03-29T06:03:27.281Z,101061.84
2023-03-29T06:06:03.965Z,101051.47
2023-03-29T06:08:32.696Z,101129.75
2023-03-29T06:11:09.100Z,101072.09
2023-03-29T06:13:37.594Z,101069.38
2023-03-29T06:16:40.721Z,101053.16
2023-03-29T06:23:16.365Z,101034.78
2023-03-29T06:25:55.546Z,101045.84
2023-03-29T06:29:07.421Z,101037.97
2023-03-29T06:31:35.572Z,101013.78
2023-03-29T06:34:04.985Z,101012.94
2023-03-29T06:37:08.087Z,101022.38
2023-03-29T06:39:57.085Z,101033.50
2023-03-29T06:42:33.108Z,101038.59
2023-03-29T06:45:15.039Z,101016.19
2023-03-29T06:47:51.055Z,101054.97
2023-03-29T06:50:27.567Z,101011.91
2023-03-29T06:52:56.619Z,101063.50
2023-03-29T06:55:36.557Z,101017.16
2023-03-29T06:58:14.048Z,101056.56
2023-03-29T07:01:04.876Z,101017.00
2023-03-29T07:03:46.684Z,101073.78
2023-03-29T07:20:05.119Z,101102.22
2023-03-29T07:22:35.070Z,101037.47
2023-03-29T07:25:05.477Z,101040.78
2023-03-29T07:30:21.781Z,100989.03
2023-03-29T07:32:59.274Z,101068.94
2023-03-29T07:39:01.927Z,101033.38
2023-03-29T07:41:28.597Z,101061.78
2023-03-29T07:43:56.030Z,101075.25
2023-03-29T07:46:23.201Z,101049.34
2023-03-29T07:48:49.826Z,101029.53
2023-03-29T07:51:17.018Z,101063.75
2023-03-29T07:53:43.898Z,101034.41
2023-03-29T07:56:10.525Z,101028.34
2023-03-29T07:58:37.821Z,101029.19
2023-03-29T08:01:10.961Z,101015.41
2023-03-29T08:03:41.941Z,101002.38
2023-03-29T08:06:10.288Z,100987.75
2023-03-29T08:08:52.733Z,101014.31
2023-03-29T08:11:19.361Z,101021.94
2023-03-29T08:13:46.751Z,100989.06
2023-03-29T08:16:15.084Z,100994.88
2023-03-29T08:18:45.047Z,101016.25
2023-03-29T08:21:13.148Z,101006.84
2023-03-29T08:23:50.408Z,100999.03
2023-03-29T08:26:17.525Z,100973.31
2023-03-29T08:28:44.913Z,100952.66
2023-03-29T08:31:14.067Z,100982.63
2023-03-29T08:33:42.880Z,100957.56
2023-03-29T08:36:10.523Z,100991.91
2023-03-29T08:38:37.388Z,101001.31
2023-03-29T08:41:26.225Z,101005.44
2023-03-29T08:44:02.320Z,100979.00
2023-03-29T08:46:35.775Z,101020.81
2023-03-29T08:49:06.309Z,100977.75
2023-03-29T08:51:38.538Z,101019.75
2023-03-29T08:54:14.171Z,100983.56
2023-03-29T08:56:45.634Z,100950.88
2023-03-29T08:59:23.222Z,100980.56
2023-03-29T09:01:53.874Z,100935.97
2023-03-29T09:04:27.160Z,100990.63
2023-03-29T09:06:55.579Z,100931.44
2023-03-29T09:09:24.245Z,100939.09
2023-03-29T09:12:25.322Z,100988.66
2023-03-29T09:15:28.453Z,100986.84
2023-03-29T09:17:55.148Z,100982.34
2023-03-29T09:20:44.872Z,100945.50
2023-03-29T09:23:29.560Z,100934.19
2023-03-29T09:29:14.219Z,100915.81
2023-03-29T09:31:47.146Z,100923.31
2023-03-29T09:34:21.885Z,100930.72
2023-03-29T09:37:03.258Z,100939.13
2023-03-29T09:39:48.476Z,100873.94
2023-03-29T09:42:19.986Z,100874.53
2023-03-29T09:44:57.313Z,100948.78
2023-03-29T09:47:43.522Z,100916.00
2023-03-29T09:50:29.672Z,100915.88
2023-03-29T09:52:59.953Z,100920.88
2023-03-29T09:55:31.585Z,100908.81
2023-03-29T09:58:02.186Z,100854.75
2023-03-29T10:00:29.492Z,100921.38
2023-03-29T10:03:01.793Z,100866.41
2023-03-29T10:05:36.958Z,100869.84
2023-03-29T10:08:22.624Z,100844.16
2023-03-29T10:10:49.922Z,100872.44
2023-03-29T10:13:29.080Z,100939.22
2023-03-29T10:16:05.594Z,100886.97
2023-03-29T10:18:33.669Z,100928.09
2023-03-29T10:21:04.629Z,100896.34
2023-03-29T10:23:40.382Z,100896.19
2023-03-29T10:26:30.599Z,100861.56
2023-03-29T10:29:00.607Z,100887.19
2023-03-29T10:31:33.465Z,100881.97
2023-03-29T10:34:07.636Z,100875.97
2023-03-29T10:36:37.436Z,100895.75
2023-03-29T10:39:06.270Z,100859.47
2023-03-29T10:41:35.973Z,100858.41
2023-03-29T10:44:08.717Z,100839.50
2023-03-29T10:46:47.316Z,100818.13
2023-03-29T10:49:25.903Z,100872.81
2023-03-29T10:51:55.772Z,100812.78
2023-03-29T10:54:24.440Z,100865.56
2023-03-29T10:56:56.144Z,100877.59
2023-03-29T10:59:49.565Z,100843.00
2023-03-29T11:02:22.815Z,100852.16
2023-03-29T11:05:29.902Z,100830.56
2023-03-29T11:08:05.835Z,100856.94
2023-03-29T11:10:56.493Z,100820.13
2023-03-29T11:13:54.906Z,100860.22
2023-03-29T11:16:27.663Z,100839.47
2023-03-29T11:19:15.720Z,100840.09
2023-03-29T11:22:16.243Z,100803.91
2023-03-29T11:25:08.230Z,100771.41
2023-03-29T11:28:03.131Z,100813.47
2023-03-29T11:30:51.931Z,100792.69
2023-03-29T11:33:33.052Z,100730.81
2023-03-29T11:36:14.676Z,100840.19
2023-03-29T11:39:05.572Z,100783.75
2023-03-29T11:41:38.138Z,100784.28
2023-03-29T11:44:19.012Z,100793.47
2023-03-29T11:46:58.906Z,100755.13
2023-03-29T11:49:37.094Z,100808.00
2023-03-29T11:52:14.999Z,100832.28
2023-03-29T11:54:45.521Z,100810.03
2023-03-29T11:57:26.253Z,100810.88
2023-03-29T12:00:05.337Z,100846.03
2023-03-29T12:02:55.399Z,100851.91
2023-03-29T12:05:40.602Z,100844.97
2023-03-29T12:08:15.767Z,100777.44
2023-03-29T12:11:12.364Z,100754.84
2023-03-29T12:13:51.986Z,100820.81
2023-03-29T12:16:27.453Z,100762.56
2023-03-29T12:19:02.725Z,100750.28
2023-03-29T12:21:31.092Z,100800.41
2023-03-29T12:24:02.422Z,100808.91
2023-03-29T12:26:57.956Z,100822.44
2023-03-29T12:29:43.611Z,100826.03
2023-03-29T12:32:41.086Z,100830.47
2023-03-29T12:35:38.106Z,100738.44
2023-03-29T12:38:10.889Z,100733.16
2023-03-29T12:41:17.654Z,100803.06
2023-03-29T12:43:45.848Z,100738.66
2023-03-29T12:46:24.525Z,100752.28
2023-03-29T12:49:13.476Z,100751.59
2023-03-29T12:51:42.492Z,100752.66
2023-03-29T12:54:26.806Z,100793.09
2023-03-29T12:57:01.167Z,100757.91
2023-03-29T12:59:39.513Z,100783.56
2023-03-29T13:02:24.504Z,100790.59
2023-03-29T13:04:55.806Z,100778.25
2023-03-29T13:07:22.685Z,100777.59
2023-03-29T13:09:51.201Z,100788.06
2023-03-29T13:12:27.154Z,100724.66
2023-03-29T13:14:57.882Z,100732.38
2023-03-29T13:17:44.909Z,100722.84
2023-03-29T13:20:17.146Z,100749.38
2023-03-29T13:22:55.915Z,100768.03
2023-03-29T13:25:41.358Z,100763.72
2023-03-29T13:28:38.594Z,100737.94
2023-03-29T13:31:27.574Z,100693.44
2023-03-29T13:34:20.419Z,100718.91
2023-03-29T13:37:36.604Z,100739.03
2023-03-29T13:40:53.124Z,100737.56
2023-03-29T13:43:19.639Z,100744.81
2023-03-29T13:46:01.100Z,100646.84
2023-03-29T13:48:37.690Z,100716.41
2023-03-29T13:51:22.278Z,100664.91
2023-03-29T13:54:13.271Z,100676.53
2023-03-29T13:57:27.880Z,100726.28
2023-03-29T14:00:00.685Z,100687.88
2023-03-29T14:02:49.746Z,100713.22
2023-03-29T14:05:24.741Z,100678.41
2023-03-29T14:07:53.350Z,100702.63
2023-03-29T14:10:27.459Z,100682.75
2023-03-29T14:12:56.615Z,100686.28
2023-03-29T14:15:27.740Z,100659.56
2023-03-29T14:17:58.975Z,100650.00
2023-03-29T14:20:32.894Z,100640.53
2023-03-29T14:23:01.695Z,100642.25
2023-03-29T14:25:32.333Z,100689.94
2023-03-29T14:28:00.395Z,100684.69
2023-03-29T14:30:29.084Z,100690.16
2023-03-29T14:32:56.741Z,100631.97
2023-03-29T14:35:32.353Z,100616.09
2023-03-29T14:38:01.816Z,100647.50
2023-03-29T14:40:31.191Z,100617.31
2023-03-29T14:43:00.698Z,100594.22
2023-03-29T14:45:27.443Z,100633.56
2023-03-29T14:47:54.535Z,100642.69
2023-03-29T14:50:28.723Z,100642.00
2023-03-29T14:53:04.518Z,100614.81
2023-03-29T14:55:31.954Z,100636.34
2023-03-29T14:58:00.326Z,100624.84
2023-03-29T15:00:30.389Z,100653.88
2023-03-29T15:03:14.862Z,100579.47
2023-03-29T15:05:49.966Z,100614.38
2023-03-29T15:08:29.521Z,100596.47
2023-03-29T15:10:56.539Z,100607.22
2023-03-29T15:13:24.692Z,100614.69
2023-03-29T15:15:58.995Z,100628.22
2023-03-29T15:18:33.003Z,100612.13
2023-03-29T15:21:01.960Z,100589.91
2023-03-29T15:23:36.978Z,100616.00
2023-03-29T15:26:23.871Z,100603.66
2023-03-29T15:28:57.590Z,100571.16
2023-03-29T15:31:34.870Z,100536.00
2023-03-29T15:34:12.725Z,100525.91
2023-03-29T15:36:46.744Z,100552.59
2023-03-29T15:39:17.618Z,100501.22
2023-03-29T15:41:51.378Z,100500.44
2023-03-29T15:44:25.427Z,100475.25
2023-03-29T15:46:52.571Z,100472.41
2023-03-29T15:49:19.713Z,100519.03
2023-03-29T15:51:49.492Z,100458.78
2023-03-29T15:54:18.217Z,100450.13
2023-03-29T15:56:52.636Z,100542.25
2023-03-29T15:59:19.675Z,100487.25
2023-03-29T16:01:46.905Z,100485.75
2023-03-29T16:04:23.436Z,100530.88
2023-03-29T16:06:54.545Z,100449.50
2023-03-29T16:09:26.091Z,100469.09
2023-03-29T16:11:54.831Z,100427.59
2023-03-29T16:14:33.877Z,100485.53
2023-03-29T16:17:01.641Z,100490.66
2023-03-29T16:19:31.272Z,100497.75
2023-03-29T16:21:59.078Z,100516.88
2023-03-29T16:24:32.681Z,100503.16
2023-03-29T16:27:01.588Z,100496.56
2023-03-29T16:29:28.791Z,100485.69
2023-03-29T16:31:55.619Z,100478.34
2023-03-29T16:34:22.901Z,100449.25
2023-03-29T16:36:50.105Z,100424.88
2023-03-29T16:39:18.635Z,100417.28
2023-03-29T16:41:48.368Z,100446.75
2023-03-29T16:44:20.084Z,100452.56
2023-03-29T16:46:48.359Z,100445.16
2023-03-29T16:49:18.691Z,100453.53
2023-03-29T16:51:47.163Z,100419.38
2023-03-29T16:54:14.488Z,100452.34
2023-03-29T16:56:41.327Z,100447.25
2023-03-29T16:59:09.124Z,100415.66
2023-03-29T17:01:37.108Z,100436.19
2023-03-29T17:04:04.329Z,100435.53
2023-03-29T17:06:33.224Z,100429.16
2023-03-29T17:09:03.218Z,100401.13
2023-03-29T17:11:29.862Z,100449.22
2023-03-29T17:13:56.740Z,100449.09
2023-03-29T17:16:23.594Z,100387.00
2023-03-29T17:18:50.697Z,100399.84
2023-03-29T17:21:17.440Z,100389.03
2023-03-29T17:23:44.356Z,100386.47
2023-03-29T17:26:12.073Z,100406.34
2023-03-29T17:28:40.258Z,100409.81
2023-03-29T17:31:08.033Z,100397.34
2023-03-29T17:33:36.266Z,100410.25
2023-03-29T17:36:05.396Z,100433.25
2023-03-29T17:38:34.399Z,100391.16
2023-03-29T17:41:02.160Z,100353.22
2023-03-29T17:43:32.767Z,100378.56
2023-03-29T17:46:02.882Z,100357.53
2023-03-29T17:48:29.917Z,100384.53
2023-03-29T17:50:57.846Z,100410.59
2023-03-29T17:53:24.966Z,100363.81
2023-03-29T17:55:57.507Z,100355.22
2023-03-29T17:58:28.046Z,100374.16
2023-03-29T18:01:33.086Z,100402.63
2023-03-29T18:08:23.147Z,100381.56
2023-03-29T18:11:17.190Z,100325.69
2023-03-29T18:14:05.364Z,100374.28
2023-03-29T18:16:46.910Z,100351.16
2023-03-29T18:19:13.987Z,100374.69
2023-03-29T18:21:41.175Z,100393.19
2023-03-29T18:24:13.283Z,100400.50
2023-03-29T18:26:43.728Z,100419.47
2023-03-29T18:29:11.450Z,100421.19
2023-03-29T18:31:41.175Z,100392.53
2023-03-29T18:34:08.930Z,100393.34
2023-03-29T18:36:39.112Z,100394.34
2023-03-29T18:39:06.092Z,100399.50
2023-03-29T18:41:34.661Z,100402.19
2023-03-29T18:44:01.709Z,100399.59
2023-03-29T18:46:31.255Z,100387.78
2023-03-29T18:49:18.537Z,100387.13
2023-03-29T18:51:46.382Z,100396.41
2023-03-29T18:54:14.025Z,100376.25
2023-03-29T18:56:48.136Z,100339.50
2023-03-29T18:59:44.528Z,100356.72
2023-03-29T19:02:17.001Z,100347.38
2023-03-29T19:04:48.183Z,100341.41
2023-03-29T19:07:14.698Z,100369.50
2023-03-29T19:09:41.812Z,100356.50
2023-03-29T19:12:08.752Z,100337.88
2023-03-29T19:14:38.568Z,100331.81
2023-03-29T19:17:05.734Z,100329.88
2023-03-29T19:19:42.530Z,100339.50
2023-03-29T19:22:09.177Z,100316.97
2023-03-29T19:24:38.172Z,100324.88
2023-03-29T19:27:10.175Z,100332.56
2023-03-29T19:29:50.277Z,100317.34
2023-03-29T19:32:17.282Z,100318.91
2023-03-29T19:34:43.904Z,100315.28
2023-03-29T19:37:13.894Z,100287.91
2023-03-29T19:39:41.488Z,100303.22
2023-03-29T19:42:08.166Z,100317.84
2023-03-29T19:44:44.289Z,100315.28
2023-03-29T19:47:14.026Z,100305.41
2023-03-29T19:49:56.697Z,100298.56
2023-03-29T19:52:54.744Z,100325.94
2023-03-29T19:56:17.372Z,100310.50
2023-03-29T19:58:44.324Z,100292.50
2023-03-29T20:04:33.741Z,100297.78
2023-03-29T20:10:16.920Z,100294.84
2023-03-29T20:12:43.623Z,100298.34
2023-03-29T20:15:12.919Z,100307.59
2023-03-29T20:17:40.954Z,100272.38
2023-03-29T20:20:13.726Z,100282.84
2023-03-29T20:22:46.433Z,100264.19
2023-03-29T20:25:51.610Z,100298.81
2023-03-29T20:31:31.820Z,100277.47
2023-03-29T20:34:18.680Z,100269.69
2023-03-29T20:37:16.809Z,100290.78
2023-03-29T20:39:53.220Z,100237.56
2023-03-29T20:42:29.007Z,100251.25
2023-03-29T20:48:03.632Z,100270.81
2023-03-29T20:50:37.019Z,100265.88
2023-03-29T20:53:11.316Z,100240.00
2023-03-29T20:55:45.163Z,100248.34
2023-03-29T20:58:25.963Z,100255.22
2023-03-29T21:00:52.940Z,100237.91
2023-03-29T21:03:22.260Z,100260.91
2023-03-29T21:05:58.366Z,100259.97
2023-03-29T21:15:06.999Z,100254.81
2023-03-29T21:17:38.848Z,100298.59
2023-03-29T21:20:40.637Z,100283.91
2023-03-29T21:26:44.859Z,100258.59
2023-03-29T21:29:17.556Z,100249.91
2023-03-29T21:32:23.711Z,100278.78
2023-03-29T21:35:00.221Z,100255.19
2023-03-29T21:37:30.282Z,100248.25
2023-03-29T21:40:16.641Z,100253.25
2023-03-29T21:42:59.573Z,100269.06
2023-03-29T21:48:36.734Z,100223.72
2023-03-29T21:51:44.923Z,100258.63
2023-03-29T22:05:55.136Z,100231.41
2023-03-29T22:08:29.553Z,100225.25
2023-03-29T22:10:57.229Z,100233.69
2023-03-29T22:13:26.507Z,100261.94
2023-03-29T22:15:59.101Z,100236.97
2023-03-29T22:18:44.273Z,100235.25
2023-03-29T22:21:18.478Z,100231.09
2023-03-29T22:23:50.025Z,100231.63
2023-03-29T22:26:21.158Z,100243.66
2023-03-29T22:28:55.026Z,100219.72
2023-03-29T22:31:23.618Z,100208.13
2023-03-29T22:33:50.994Z,100207.81
2023-03-29T22:36:23.747Z,100239.47
2023-03-29T22:38:51.759Z,100228.47
2023-03-29T22:41:19.658Z,100233.69
2023-03-29T22:43:46.452Z,100240.72
2023-03-29T22:46:19.284Z,100203.06
2023-03-29T22:48:46.557Z,100201.22
2023-03-29T22:51:16.878Z,100214.84
2023-03-29T22:53:43.989Z,100213.28
2023-03-29T22:56:23.860Z,100218.50
2023-03-29T22:58:50.642Z,100189.22
2023-03-29T23:01:17.332Z,100207.25
2023-03-29T23:03:44.551Z,100214.97
2023-03-29T23:06:11.870Z,100199.66
2023-03-29T23:08:38.936Z,100199.66
2023-03-29T23:11:08.336Z,100191.16
2023-03-29T23:13:35.192Z,100196.97
2023-03-29T23:16:03.852Z,100202.81
2023-03-29T23:18:32.556Z,100209.75
2023-03-29T23:21:00.336Z,100185.53
2023-03-29T23:23:28.273Z,100211.44
2023-03-29T23:25:56.163Z,100202.81
2023-03-29T23:28:27.137Z,100191.75
2023-03-29T23:31:08.506Z,100184.00
2023-03-29T23:33:36.689Z,100197.34
2023-03-29T23:36:08.950Z,100192.47
2023-03-29T23:38:38.721Z,100182.41
2023-03-29T23:41:08.687Z,100202.81
2023-03-29T23:43:39.309Z,100167.78
2023-03-29T23:46:11.484Z,100161.72
2023-03-29T23:48:41.721Z,100165.94
2023-03-29T23:51:10.399Z,100168.66
2023-03-29T23:53:42.125Z,100190.13
2023-03-29T23:56:09.254Z,100190.16
2023-03-29T23:58:38.161Z,100194.31
